Time;durP1;ratioP1;P1;durP2;ratioP2;P2;SDS_P1;SDS_P2;PMS_P1;PMS_P2;Temp;Humidity;BMP_temperature;BMP_pressure;BME280_temperature;BME280_humidity;BME280_pressure;Samples;Min_cycle;Max_cycle;Signal;HPM_P1;HPM_P2
2021/05/05 00:01:54;;;;;;;1999.90;999.90;;;8.90;99.90;;;;;;5038714;28;20181;-80
2021/05/05 00:04:20;;;;;;;1999.90;999.90;;;8.80;99.90;;;;;;5021540;28;20161;-80
2021/05/05 00:06:46;;;;;;;1999.90;999.90;;;8.80;99.90;;;;;;5039233;28;20165;-80
2021/05/05 00:09:13;;;;;;;1999.90;999.90;;;8.80;99.90;;;;;;5020836;28;20747;-80
2021/05/05 00:11:40;;;;;;;1999.90;999.90;;;8.70;99.90;;;;;;5020804;28;20200;-80
2021/05/05 00:14:06;;;;;;;1999.90;999.90;;;8.70;99.90;;;;;;5020287;28;20201;-80
2021/05/05 00:16:32;;;;;;;1999.90;999.90;;;8.60;99.90;;;;;;5038498;28;20207;-79
2021/05/05 00:18:58;;;;;;;1999.90;999.90;;;8.50;99.90;;;;;;5038601;28;20692;-80
2021/05/05 00:21:24;;;;;;;1999.90;999.90;;;8.40;99.90;;;;;;5039414;28;21016;-80
2021/05/05 00:23:50;;;;;;;1999.90;999.90;;;8.40;99.90;;;;;;5021267;28;20197;-80
2021/05/05 00:26:16;;;;;;;1999.90;999.90;;;8.40;99.90;;;;;;5021786;28;20192;-80
2021/05/05 00:28:41;;;;;;;1999.90;999.90;;;8.40;99.90;;;;;;5038841;28;20738;-80
2021/05/05 00:31:07;;;;;;;1999.90;999.90;;;8.40;99.90;;;;;;5039112;28;20848;-81
2021/05/05 00:33:33;;;;;;;1999.90;999.90;;;8.30;99.90;;;;;;5039154;28;20412;-80
2021/05/05 00:35:58;;;;;;;1999.90;999.90;;;8.40;99.90;;;;;;5038803;28;20171;-81
2021/05/05 00:38:24;;;;;;;1999.90;999.90;;;8.30;99.90;;;;;;5038730;28;20184;-80
2021/05/05 00:40:50;;;;;;;1999.90;999.90;;;8.30;99.90;;;;;;5039583;28;20222;-80
2021/05/05 00:43:15;;;;;;;1999.90;999.90;;;8.30;99.90;;;;;;5039379;28;20216;-80
2021/05/05 00:45:41;;;;;;;1999.90;999.90;;;8.30;99.90;;;;;;5039600;28;20176;-79
2021/05/05 00:48:07;;;;;;;1999.90;999.90;;;8.30;99.90;;;;;;5021073;28;20279;-78
2021/05/05 00:50:33;;;;;;;1999.90;999.90;;;8.30;99.90;;;;;;5038797;28;20227;-80
2021/05/05 00:52:58;;;;;;;1999.90;999.90;;;8.40;99.90;;;;;;5040062;28;20157;-80
2021/05/05 00:55:24;;;;;;;1999.90;999.90;;;8.40;99.90;;;;;;5040251;28;20344;-81
2021/05/05 00:57:50;;;;;;;1999.90;999.90;;;8.30;99.90;;;;;;5039725;28;20684;-80
2021/05/05 01:00:20;;;;;;;1999.90;999.90;;;8.40;99.90;;;;;;5038436;28;20197;-80
2021/05/05 01:02:45;;;;;;;1999.90;999.90;;;8.40;99.90;;;;;;5021683;28;20599;-80
2021/05/05 01:05:13;;;;;;;1999.90;999.90;;;8.30;99.90;;;;;;5038737;28;20157;-79
2021/05/05 01:07:39;;;;;;;1999.90;999.90;;;8.20;99.90;;;;;;5038494;28;20493;-79
2021/05/05 01:10:08;;;;;;;1999.90;999.90;;;8.20;99.90;;;;;;5038523;28;20161;-80
2021/05/05 01:12:34;;;;;;;1999.90;999.90;;;8.30;99.90;;;;;;5039204;28;20407;-79
2021/05/05 01:14:59;;;;;;;1999.90;999.90;;;8.30;99.90;;;;;;5021599;28;20541;-80
2021/05/05 01:17:25;;;;;;;1999.90;999.90;;;8.20;99.90;;;;;;5021624;28;20193;-80
2021/05/05 01:19:51;;;;;;;1999.90;999.90;;;8.10;99.90;;;;;;5039910;28;20680;-80
2021/05/05 01:22:16;;;;;;;1999.90;999.90;;;8.20;99.90;;;;;;5039215;28;20189;-80
2021/05/05 01:24:43;;;;;;;1999.90;999.90;;;8.10;99.90;;;;;;5039387;28;20165;-80
2021/05/05 01:27:09;;;;;;;1999.90;999.90;;;8.10;99.90;;;;;;5039264;28;20185;-80
2021/05/05 01:29:36;;;;;;;1999.90;999.90;;;8.20;99.90;;;;;;5039783;28;20249;-80
2021/05/05 01:32:02;;;;;;;1999.90;999.90;;;8.20;99.90;;;;;;5039463;28;20161;-79
2021/05/05 01:34:28;;;;;;;1999.90;999.90;;;8.20;99.90;;;;;;5038666;28;20201;-80
2021/05/05 01:36:54;;;;;;;1999.90;999.90;;;8.20;99.90;;;;;;5100604;22;20807;-79
2021/05/05 01:39:20;;;;;;;1999.90;999.90;;;8.10;99.90;;;;;;5058202;28;20497;-79
2021/05/05 01:41:47;;;;;;;1999.90;999.90;;;8.10;99.90;;;;;;5058241;28;20184;-79
2021/05/05 01:44:14;;;;;;;1999.90;999.90;;;8.00;99.90;;;;;;5058672;28;20527;-79
2021/05/05 01:46:46;;;;;;;1999.90;999.90;;;8.10;99.90;;;;;;5057045;28;20167;-79
2021/05/05 01:49:21;;;;;;;1999.90;999.90;;;8.00;99.90;;;;;;5041050;28;20670;-78
2021/05/05 01:51:47;;;;;;;1999.90;999.90;;;8.00;99.90;;;;;;5040939;28;20191;-79
2021/05/05 01:54:12;;;;;;;1999.90;999.90;;;8.00;99.90;;;;;;5058613;28;20172;-79
2021/05/05 01:56:38;;;;;;;1999.90;999.90;;;7.80;99.90;;;;;;5058492;28;20184;-79
2021/05/05 01:59:04;;;;;;;1999.90;999.90;;;7.80;99.90;;;;;;5061411;28;20172;-79
2021/05/05 02:01:30;;;;;;;1999.90;999.90;;;7.80;99.90;;;;;;5063202;28;20230;-79
2021/05/05 02:04:01;;;;;;;1999.90;999.90;;;7.80;99.90;;;;;;5061984;28;20493;-78
2021/05/05 02:06:27;;;;;;;1999.90;999.90;;;7.80;99.90;;;;;;5061754;28;20615;-79
2021/05/05 02:08:52;;;;;;;1999.90;999.90;;;7.80;99.90;;;;;;5043512;28;20189;-79
2021/05/05 02:11:18;;;;;;;1999.90;999.90;;;7.80;99.90;;;;;;5061477;28;20176;-79
2021/05/05 02:13:44;;;;;;;1999.90;999.90;;;7.80;99.90;;;;;;5061893;28;20172;-79
2021/05/05 02:16:09;;;;;;;1999.90;999.90;;;7.80;99.90;;;;;;5062155;28;20168;-78
2021/05/05 02:18:35;;;;;;;1999.90;999.90;;;7.60;99.90;;;;;;5061163;28;20961;-79
2021/05/05 02:21:01;;;;;;;1999.90;999.90;;;7.70;99.90;;;;;;5061667;28;20192;-79
2021/05/05 02:23:26;;;;;;;1999.90;999.90;;;7.70;99.90;;;;;;5061511;28;20165;-79
2021/05/05 02:25:52;;;;;;;1999.90;999.90;;;7.80;99.90;;;;;;5061596;28;20195;-79
2021/05/05 02:28:18;;;;;;;1999.90;999.90;;;7.80;99.90;;;;;;5061361;28;20196;-79
2021/05/05 02:30:44;;;;;;;1999.90;999.90;;;7.80;99.90;;;;;;5063145;28;20469;-79
2021/05/05 02:33:09;;;;;;;1999.90;999.90;;;7.90;99.90;;;;;;5062671;28;20176;-78
2021/05/05 02:35:35;;;;;;;1999.90;999.90;;;8.00;99.90;;;;;;5063760;28;20164;-78
2021/05/05 02:38:01;;;;;;;1999.90;999.90;;;8.00;99.90;;;;;;5062713;28;20224;-78
2021/05/05 02:40:27;;;;;;;1999.90;999.90;;;8.10;99.90;;;;;;5044276;28;20183;-77
2021/05/05 02:42:53;;;;;;;1999.90;999.90;;;8.00;99.90;;;;;;5061791;28;20176;-78
2021/05/05 02:45:19;;;;;;;1999.90;999.90;;;8.00;99.90;;;;;;5061926;28;20910;-78
2021/05/05 02:47:44;;;;;;;1999.90;999.90;;;8.00;99.90;;;;;;5062054;28;20453;-77
2021/05/05 02:50:11;;;;;;;1999.90;999.90;;;8.00;99.90;;;;;;5061395;28;20157;-78
2021/05/05 02:52:37;;;;;;;1999.90;999.90;;;8.00;99.90;;;;;;5061779;28;20165;-79
2021/05/05 02:55:03;;;;;;;1999.90;999.90;;;8.00;99.90;;;;;;5060786;28;20536;-81
2021/05/05 02:57:29;;;;;;;1999.90;999.90;;;8.10;99.90;;;;;;5061967;28;20256;-78
2021/05/05 02:59:55;;;;;;;1999.90;999.90;;;8.10;99.90;;;;;;5062388;28;20710;-78
2021/05/05 03:02:21;;;;;;;1999.90;999.90;;;8.10;99.90;;;;;;5061497;28;20529;-78
2021/05/05 03:04:46;;;;;;;1999.90;999.90;;;8.10;99.90;;;;;;5060870;28;20196;-78
2021/05/05 03:07:12;;;;;;;1999.90;999.90;;;8.00;99.90;;;;;;5060934;28;20189;-78
2021/05/05 03:09:38;;;;;;;1999.90;999.90;;;7.90;99.90;;;;;;5060305;28;20251;-78
2021/05/05 03:12:04;;;;;;;1999.90;999.90;;;7.90;99.90;;;;;;5042978;28;20192;-79
2021/05/05 03:14:30;;;;;;;1999.90;999.90;;;7.90;99.90;;;;;;5062525;28;20535;-79
2021/05/05 03:16:57;;;;;;;1999.90;999.90;;;7.90;99.90;;;;;;5062063;28;20180;-80
2021/05/05 03:19:24;;;;;;;1999.90;999.90;;;7.90;99.90;;;;;;5062799;28;20532;-80
2021/05/05 03:21:50;;;;;;;1999.90;999.90;;;7.90;99.90;;;;;;5062164;28;20181;-79
2021/05/05 03:24:16;;;;;;;1999.90;999.90;;;7.90;99.90;;;;;;5062094;28;20693;-80
2021/05/05 03:26:42;;;;;;;1999.90;999.90;;;7.90;99.90;;;;;;5061763;28;20172;-80
2021/05/05 03:29:07;;;;;;;1999.90;999.90;;;7.90;99.90;;;;;;5061428;28;20187;-80
2021/05/05 03:31:34;;;;;;;1999.90;999.90;;;7.80;99.90;;;;;;5043696;28;20200;-80
2021/05/05 03:34:00;;;;;;;1999.90;999.90;;;7.80;99.90;;;;;;5061981;28;20168;-79
2021/05/05 03:36:26;;;;;;;1999.90;999.90;;;7.90;99.90;;;;;;5061342;28;20161;-79
2021/05/05 03:38:52;;;;;;;1999.90;999.90;;;7.80;99.90;;;;;;5043286;28;20210;-80
2021/05/05 03:41:17;;;;;;;1999.90;999.90;;;7.80;99.90;;;;;;5061380;28;20271;-79
2021/05/05 03:43:43;;;;;;;1999.90;999.90;;;7.80;99.90;;;;;;5061054;28;20191;-79
2021/05/05 03:46:09;;;;;;;1999.90;999.90;;;7.80;99.90;;;;;;5061403;28;20199;-80
2021/05/05 03:48:35;;;;;;;1999.90;999.90;;;7.80;99.90;;;;;;5062031;28;20215;-80
2021/05/05 03:51:03;;;;;;;1999.90;999.90;;;7.80;99.90;;;;;;5061070;28;20180;-80
2021/05/05 03:53:29;;;;;;;1999.90;999.90;;;7.80;99.90;;;;;;5061447;28;20913;-80
2021/05/05 03:55:54;;;;;;;1999.90;999.90;;;7.70;99.90;;;;;;5061534;28;20172;-79
2021/05/05 03:58:20;;;;;;;1999.90;999.90;;;7.70;99.90;;;;;;5060506;28;20419;-79
2021/05/05 04:00:46;;;;;;;1999.90;999.90;;;7.70;99.90;;;;;;5060597;28;20254;-79
2021/05/05 04:03:11;;;;;;;1999.90;999.90;;;7.80;99.90;;;;;;5042212;28;20172;-79
2021/05/05 04:05:37;;;;;;;1999.90;999.90;;;7.70;99.90;;;;;;5060573;28;20695;-79
2021/05/05 04:08:03;;;;;;;1999.90;999.90;;;7.70;99.90;;;;;;5060308;28;20176;-79
2021/05/05 04:10:29;;;;;;;1999.90;999.90;;;7.60;99.90;;;;;;5042407;28;20399;-79
2021/05/05 04:12:55;;;;;;;1999.90;999.90;;;7.50;99.90;;;;;;5059683;28;20184;-79
2021/05/05 04:15:20;;;;;;;1999.90;999.90;;;7.50;99.90;;;;;;5059794;28;20615;-79
2021/05/05 04:17:46;;;;;;;1999.90;999.90;;;7.50;99.90;;;;;;5039929;28;20715;-79
2021/05/05 04:20:13;;;;;;;1999.90;999.90;;;7.50;99.90;;;;;;5057786;28;20169;-79
2021/05/05 04:22:39;;;;;;;1999.90;999.90;;;7.60;99.90;;;;;;5057159;28;20195;-79
2021/05/05 04:25:06;;;;;;;1999.90;999.90;;;7.60;99.90;;;;;;5060141;28;20165;-79
2021/05/05 04:27:32;;;;;;;1999.90;999.90;;;7.60;99.90;;;;;;5061255;28;20697;-79
2021/05/05 04:29:57;;;;;;;1999.90;999.90;;;7.60;99.90;;;;;;5043998;28;20251;-79
2021/05/05 04:32:24;;;;;;;1999.90;999.90;;;7.70;99.90;;;;;;5041522;28;20544;-79
2021/05/05 04:34:50;;;;;;;1999.90;999.90;;;7.60;99.90;;;;;;5040715;28;20183;-79
2021/05/05 04:37:15;;;;;;;1999.90;999.90;;;7.60;99.90;;;;;;5059675;28;20215;-79
2021/05/05 04:39:41;;;;;;;1999.90;999.90;;;7.70;99.90;;;;;;5060568;28;20410;-79
2021/05/05 04:42:07;;;;;;;1999.90;999.90;;;7.70;99.90;;;;;;5060159;28;20177;-79
2021/05/05 04:44:34;;;;;;;1999.90;999.90;;;7.70;99.90;;;;;;5041683;28;20659;-79
2021/05/05 04:46:59;;;;;;;1999.90;999.90;;;7.70;99.90;;;;;;5041366;28;20200;-79
2021/05/05 04:49:26;;;;;;;1999.90;999.90;;;7.70;99.90;;;;;;5059145;28;20624;-79
2021/05/05 04:51:51;;;;;;;1999.90;999.90;;;7.70;99.90;;;;;;5058976;28;20403;-79
2021/05/05 04:54:17;;;;;;;1999.90;999.90;;;7.70;99.90;;;;;;5103121;22;20227;-84
2021/05/05 04:56:42;;;;;;;1999.90;999.90;;;7.80;99.90;;;;;;5038877;28;20192;-84
2021/05/05 04:59:08;;;;;;;1999.90;999.90;;;7.80;99.90;;;;;;5039426;28;20162;-84
2021/05/05 05:01:34;;;;;;;1999.90;999.90;;;7.80;99.90;;;;;;5039493;28;20238;-84
2021/05/05 05:04:00;;;;;;;1999.90;999.90;;;7.80;99.90;;;;;;5039926;28;20418;-84
2021/05/05 05:06:26;;;;;;;1999.90;999.90;;;7.90;99.90;;;;;;5039205;28;20162;-84
2021/05/05 05:08:51;;;;;;;1999.90;999.90;;;7.90;99.90;;;;;;5038779;28;20411;-84
2021/05/05 05:11:17;;;;;;;1999.90;999.90;;;8.00;99.90;;;;;;5037302;28;20169;-86
2021/05/05 05:13:43;;;;;;;1999.90;999.90;;;8.00;99.90;;;;;;5036814;28;20686;-86
2021/05/05 05:16:09;;;;;;;1999.90;999.90;;;8.00;99.90;;;;;;5037543;28;20412;-84
2021/05/05 05:18:35;;;;;;;1999.90;999.90;;;8.10;99.90;;;;;;5038360;28;20193;-84
2021/05/05 05:21:03;;;;;;;1999.90;999.90;;;8.20;99.90;;;;;;5038992;28;20206;-84
2021/05/05 05:23:29;;;;;;;1999.90;999.90;;;8.20;99.90;;;;;;5039527;28;20157;-84
2021/05/05 05:25:56;;;;;;;1999.90;999.90;;;8.20;99.90;;;;;;5039569;28;20280;-84
2021/05/05 05:28:22;;;;;;;1999.90;999.90;;;8.30;99.90;;;;;;5022481;28;20432;-84
2021/05/05 05:30:48;;;;;;;1999.90;999.90;;;8.30;99.90;;;;;;5039064;28;20216;-84
2021/05/05 05:33:14;;;;;;;1999.90;999.90;;;8.20;99.90;;;;;;5039599;28;20169;-85
2021/05/05 05:35:40;;;;;;;1999.90;999.90;;;8.30;99.90;;;;;;5042673;28;20165;-85
2021/05/05 05:38:06;;;;;;;1999.90;999.90;;;8.20;99.90;;;;;;5043152;28;20609;-84
2021/05/05 05:40:32;;;;;;;1999.90;999.90;;;8.30;99.90;;;;;;5027038;28;20775;-84
2021/05/05 05:42:58;;;;;;;1999.90;999.90;;;8.40;99.90;;;;;;5045074;28;20178;-84
2021/05/05 05:45:24;;;;;;;1999.90;999.90;;;8.50;99.90;;;;;;5043097;28;20162;-86
2021/05/05 05:47:49;;;;;;;1999.90;999.90;;;8.50;99.90;;;;;;5019317;28;20327;-86
2021/05/05 05:50:15;;;;;;;1999.90;999.90;;;8.50;99.90;;;;;;5036915;28;20679;-86
2021/05/05 05:52:41;;;;;;;1999.90;999.90;;;8.50;99.90;;;;;;5037317;28;20193;-86
2021/05/05 05:55:09;;;;;;;1999.90;999.90;;;8.40;99.90;;;;;;5036439;28;20192;-86
2021/05/05 05:57:37;;;;;;;1999.90;999.90;;;8.40;99.90;;;;;;5002809;28;20185;-86
2021/05/05 06:00:07;;;;;;;1999.90;999.90;;;8.20;99.90;;;;;;5035364;28;20173;-86
2021/05/05 06:02:32;;;;;;;1999.90;999.90;;;8.20;99.90;;;;;;5037006;28;20173;-86
2021/05/05 06:04:58;;;;;;;1999.90;999.90;;;8.10;99.90;;;;;;5037075;28;20157;-86
2021/05/05 06:07:24;;;;;;;1999.90;999.90;;;8.10;99.90;;;;;;5035893;28;20196;-86
2021/05/05 06:09:49;;;;;;;1999.90;999.90;;;8.20;99.90;;;;;;5037047;28;20162;-86
2021/05/05 06:12:15;;;;;;;1999.90;999.90;;;8.30;99.90;;;;;;5021327;28;20201;-86
2021/05/05 06:14:41;;;;;;;1999.90;999.90;;;8.30;99.90;;;;;;5037179;28;20165;-88
2021/05/05 06:17:06;;;;;;;1999.90;999.90;;;8.40;99.90;;;;;;5036255;28;20189;-88
2021/05/05 06:19:32;;;;;;;1999.90;999.90;;;8.40;99.90;;;;;;5036913;28;20494;-89
2021/05/05 06:21:58;;;;;;;1999.90;999.90;;;8.20;99.90;;;;;;5035874;28;20191;-88
2021/05/05 06:24:24;;;;;;;1999.90;999.90;;;8.30;99.90;;;;;;5036174;28;20193;-88
2021/05/05 06:26:50;;;;;;;1999.90;999.90;;;8.30;99.90;;;;;;5038060;28;20177;-86
2021/05/05 06:29:18;;;;;;;1999.90;999.90;;;8.30;99.90;;;;;;5036696;28;20625;-88
2021/05/05 06:31:44;;;;;;;1999.90;999.90;;;8.10;99.90;;;;;;5036126;28;20492;-88
2021/05/05 06:34:10;;;;;;;1999.90;999.90;;;8.20;99.90;;;;;;5036884;28;20241;-87
2021/05/05 06:36:36;;;;;;;1999.90;999.90;;;8.30;99.90;;;;;;5019407;28;20923;-87
2021/05/05 06:39:05;;;;;;;1999.90;999.90;;;8.30;99.90;;;;;;5019089;28;20474;-90
2021/05/05 06:41:31;;;;;;;1999.90;999.90;;;8.30;99.90;;;;;;5017943;28;20193;-90
2021/05/05 06:43:59;;;;;;;1999.90;999.90;;;8.40;99.90;;;;;;5017655;28;20177;-90
2021/05/05 06:46:24;;;;;;;1999.90;999.90;;;8.40;99.90;;;;;;5036344;28;20165;-87
2021/05/05 06:48:50;;;;;;;1999.90;999.90;;;8.50;99.90;;;;;;5036673;28;20208;-85
2021/05/05 06:51:16;;;;;;;1999.90;999.90;;;8.60;99.90;;;;;;5037090;28;20540;-87
2021/05/05 06:53:41;;;;;;;1999.90;999.90;;;8.70;99.90;;;;;;5037285;28;20392;-87
2021/05/05 06:56:07;;;;;;;1999.90;999.90;;;8.80;99.90;;;;;;5038111;28;20486;-87
2021/05/05 06:58:33;;;;;;;1999.90;999.90;;;8.80;99.90;;;;;;5037721;28;20212;-86
2021/05/05 07:01:01;;;;;;;1999.90;999.90;;;8.90;99.90;;;;;;5036138;28;20552;-87
2021/05/05 07:03:27;;;;;;;1999.90;999.90;;;9.00;99.90;;;;;;5018102;28;20188;-86
2021/05/05 07:05:53;;;;;;;1999.90;999.90;;;8.90;99.90;;;;;;5036100;28;20165;-84
2021/05/05 07:08:18;;;;;;;1999.90;999.90;;;8.80;99.90;;;;;;5017886;28;20277;-85
2021/05/05 07:10:44;;;;;;;1999.90;999.90;;;8.70;99.90;;;;;;5036252;28;20223;-84
2021/05/05 07:13:10;;;;;;;1999.90;999.90;;;8.60;99.90;;;;;;5036293;28;20176;-83
2021/05/05 07:15:36;;;;;;;1999.90;999.90;;;8.50;99.90;;;;;;5036397;28;20625;-84
2021/05/05 07:18:01;;;;;;;1999.90;999.90;;;8.50;99.90;;;;;;5018919;28;20478;-84
2021/05/05 07:20:27;;;;;;;1999.90;999.90;;;8.50;99.90;;;;;;5018249;28;20215;-84
2021/05/05 07:22:53;;;;;;;1999.90;999.90;;;8.40;99.90;;;;;;5035607;28;20196;-87
2021/05/05 07:25:19;;;;;;;1999.90;999.90;;;8.30;99.90;;;;;;5035582;28;20176;-87
2021/05/05 07:27:44;;;;;;;1999.90;999.90;;;8.30;99.90;;;;;;5035260;28;20200;-86
2021/05/05 07:30:13;;;;;;;1999.90;999.90;;;8.40;99.90;;;;;;5017779;28;20165;-87
2021/05/05 07:32:40;;;;;;;1999.90;999.90;;;8.50;99.90;;;;;;5035876;28;20404;-86
2021/05/05 07:35:09;;;;;;;1999.90;999.90;;;8.50;99.90;;;;;;5018319;28;20173;-86
2021/05/05 07:45:43;;;;;;;1999.90;999.90;;;8.60;99.90;;;;;;5035300;28;20208;-86
2021/05/05 07:48:09;;;;;;;1999.90;999.90;;;8.80;99.90;;;;;;5035455;28;20212;-86
2021/05/05 07:50:38;;;;;;;1999.90;999.90;;;9.10;99.90;;;;;;5035925;28;20169;-85
2021/05/05 07:53:05;;;;;;;1999.90;999.90;;;9.20;99.90;;;;;;5036173;28;20640;-85
2021/05/05 07:55:31;;;;;;;1999.90;999.90;;;9.30;99.90;;;;;;5035401;28;20674;-83
2021/05/05 07:57:58;;;;;;;1999.90;999.90;;;9.50;99.90;;;;;;5035575;28;20185;-81
2021/05/05 08:00:23;;;;;;;1999.90;999.90;;;9.50;99.90;;;;;;5034777;28;20629;-82
2021/05/05 08:02:49;;;;;;;1999.90;999.90;;;9.50;99.90;;;;;;5036538;28;20203;-83
2021/05/05 08:05:15;;;;;;;1999.90;999.90;;;9.50;99.90;;;;;;5038885;28;20419;-84
2021/05/05 08:07:42;;;;;;;1999.90;999.90;;;9.50;99.90;;;;;;5040129;28;20423;-83
2021/05/05 08:10:09;;;;;;;1999.90;999.90;;;9.50;99.90;;;;;;5022891;28;20197;-82
2021/05/05 08:12:34;;;;;;;1999.90;999.90;;;9.50;99.90;;;;;;5040006;28;20169;-82
2021/05/05 08:15:00;;;;;;;1999.90;999.90;;;9.50;99.90;;;;;;5040222;28;20295;-83
2021/05/05 08:17:26;;;;;;;1999.90;999.90;;;9.50;99.90;;;;;;5040068;28;20428;-84
2021/05/05 08:19:52;;;;;;;1999.90;999.90;;;9.50;99.90;;;;;;5039657;28;20196;-82
2021/05/05 08:22:20;;;;;;;1999.90;999.90;;;9.60;99.90;;;;;;5037416;28;20224;-82
2021/05/05 08:24:45;;;;;;;1999.90;999.90;;;9.50;99.90;;;;;;5038900;28;20165;-82
2021/05/05 08:27:11;;;;;;;1999.90;999.90;;;9.30;99.90;;;;;;5036254;28;20207;-83
2021/05/05 08:29:37;;;;;;;1999.90;999.90;;;9.00;99.90;;;;;;5036258;28;20165;-83
2021/05/05 08:32:04;;;;;;;1999.90;999.90;;;8.70;99.90;;;;;;5039202;28;20260;-83
2021/05/05 08:34:29;;;;;;;1999.90;999.90;;;8.50;99.90;;;;;;5038178;28;20275;-84
2021/05/05 08:36:57;;;;;;;1999.90;999.90;;;8.30;99.90;;;;;;5038291;28;20605;-83
2021/05/05 08:39:23;;;;;;;1999.90;999.90;;;8.10;99.90;;;;;;5039481;28;20404;-82
2021/05/05 08:41:57;;;;;;;1999.90;999.90;;;7.90;99.90;;;;;;5038809;28;20193;-81
2021/05/05 08:44:23;;;;;;;1999.90;999.90;;;7.60;99.90;;;;;;5039460;28;20156;-82
2021/05/05 08:46:49;;;;;;;1999.90;999.90;;;7.50;99.90;;;;;;5035752;28;20162;-83
2021/05/05 08:49:16;;;;;;;1999.90;999.90;;;7.50;99.90;;;;;;5036211;28;20810;-84
2021/05/05 08:51:43;;;;;;;1999.90;999.90;;;7.60;99.90;;;;;;5035540;28;20204;-83
2021/05/05 08:54:09;;;;;;;1999.90;999.90;;;7.80;99.90;;;;;;5034414;28;20193;-83
2021/05/05 08:56:37;;;;;;;1999.90;999.90;;;7.80;99.90;;;;;;5017923;28;20157;-82
2021/05/05 08:59:08;;;;;;;1999.90;999.90;;;7.90;99.90;;;;;;5036103;28;20165;-82
2021/05/05 09:01:35;;;;;;;1999.90;999.90;;;8.00;99.90;;;;;;5037989;28;20247;-82
2021/05/05 09:04:01;;;;;;;1999.90;999.90;;;8.00;99.90;;;;;;5038277;28;20175;-82
2021/05/05 09:06:56;;;;;;;1999.90;999.90;;;8.00;99.90;;;;;;5036253;28;20166;-83
2021/05/05 09:09:45;;;;;;;1999.90;999.90;;;8.20;99.90;;;;;;5038296;28;20723;-83
2021/05/05 09:12:20;;;;;;;1999.90;999.90;;;8.20;99.90;;;;;;5021226;28;20169;-83
2021/05/05 09:14:55;;;;;;;1999.90;999.90;;;8.20;99.90;;;;;;5037798;28;20589;-82
2021/05/05 09:17:36;;;;;;;1999.90;999.90;;;8.10;99.90;;;;;;5041387;28;20185;-83
2021/05/05 09:20:05;;;;;;;1999.90;999.90;;;8.20;99.90;;;;;;5042276;28;20169;-83
2021/05/05 09:22:57;;;;;;;1999.90;999.90;;;8.10;99.90;;;;;;5042526;28;20268;-82
2021/05/05 09:25:24;;;;;;;1999.90;999.90;;;8.20;99.90;;;;;;5039236;28;20173;-84
2021/05/05 09:28:15;;;;;;;1999.90;999.90;;;8.20;99.90;;;;;;5037881;28;20228;-83
2021/05/05 09:30:45;;;;;;;1999.90;999.90;;;8.40;99.90;;;;;;5037974;28;20137;-83
2021/05/05 09:33:25;;;;;;;1999.90;999.90;;;8.50;99.90;;;;;;5039600;28;20153;-81
2021/05/05 09:35:59;;;;;;;1999.90;999.90;;;8.70;99.90;;;;;;5039032;28;20160;-82
2021/05/05 09:38:50;;;;;;;1999.90;999.90;;;9.00;99.90;;;;;;5021414;28;20184;-82
2021/05/05 09:41:19;;;;;;;1999.90;999.90;;;9.30;99.90;;;;;;5038186;28;20189;-80
2021/05/05 09:43:46;;;;;;;1999.90;999.90;;;9.50;99.90;;;;;;5037942;28;20168;-81
2021/05/05 09:46:50;;;;;;;1999.90;999.90;;;9.50;99.90;;;;;;5020693;28;20166;-82
2021/05/05 09:49:19;;;;;;;1999.90;999.90;;;9.70;99.90;;;;;;5017354;28;20179;-81
2021/05/05 09:51:51;;;;;;;1999.90;999.90;;;9.90;99.90;;;;;;5038090;28;20177;-83
2021/05/05 09:54:21;;;;;;;1999.90;999.90;;;10.20;99.90;;;;;;5037146;28;20656;-82
2021/05/05 09:56:47;;;;;;;1999.90;999.90;;;10.30;99.90;;;;;;5038050;28;20169;-81
2021/05/05 09:59:12;;;;;;;1999.90;999.90;;;10.30;99.90;;;;;;5038707;28;20165;-82
2021/05/05 10:01:38;;;;;;;1999.90;999.90;;;10.20;99.90;;;;;;5039300;28;20398;-81
2021/05/05 10:04:04;;;;;;;1999.90;999.90;;;10.20;99.90;;;;;;5036703;28;20161;-82
2021/05/05 10:06:37;;;;;;;1999.90;999.90;;;10.30;99.90;;;;;;5036481;28;20246;-81
2021/05/05 10:09:10;;;;;;;1999.90;999.90;;;10.50;99.90;;;;;;5038972;28;20487;-83
2021/05/05 10:11:41;;;;;;;1999.90;999.90;;;10.70;99.90;;;;;;5039778;28;20528;-82
2021/05/05 10:14:16;;;;;;;1999.90;999.90;;;10.70;99.90;;;;;;5038619;28;20209;-84
2021/05/05 10:16:49;;;;;;;1999.90;999.90;;;10.70;99.90;;;;;;5039042;28;20179;-83
2021/05/05 10:19:20;;;;;;;1999.90;999.90;;;10.90;99.90;;;;;;5041589;28;20170;-81
2021/05/05 10:21:56;;;;;;;1999.90;999.90;;;11.30;99.90;;;;;;5041528;28;20184;-81
2021/05/05 10:24:23;;;;;;;1999.90;999.90;;;11.50;99.90;;;;;;5039149;28;20176;-81
2021/05/05 10:26:50;;;;;;;1999.90;999.90;;;11.70;99.90;;;;;;5038775;28;20171;-83
2021/05/05 10:29:17;;;;;;;1999.90;999.90;;;12.00;99.90;;;;;;5039077;28;20168;-83
2021/05/05 10:31:54;;;;;;;1999.90;999.90;;;12.20;99.90;;;;;;5038846;28;20193;-82
2021/05/05 10:34:22;;;;;;;1999.90;999.90;;;12.20;94.10;;;;;;5039157;28;20224;-82
2021/05/05 10:36:53;;;;;;;1999.90;999.90;;;12.00;88.90;;;;;;5038932;28;20185;-81
2021/05/05 10:39:18;;;;;;;1999.90;999.90;;;12.00;94.10;;;;;;5039494;28;20197;-82
2021/05/05 10:42:15;;;;;;;1999.90;999.90;;;12.30;96.10;;;;;;5039236;28;20691;-82
2021/05/05 10:44:46;;;;;;;1999.90;999.90;;;12.40;92.50;;;;;;5038439;28;20162;-83
2021/05/05 10:47:34;;;;;;;1999.90;999.90;;;12.30;89.30;;;;;;5039692;28;20201;-81
2021/05/05 10:52:30;;;;;;;1999.90;999.90;;;12.10;80.00;;;;;;5039005;28;20267;-82
2021/05/05 10:54:57;;;;;;;1999.90;999.90;;;12.30;84.10;;;;;;5037941;28;20185;-82
2021/05/05 10:57:25;;;;;;;1999.90;999.90;;;12.10;78.30;;;;;;5037811;28;20336;-82
2021/05/05 10:59:57;;;;;;;1999.90;999.90;;;11.70;88.80;;;;;;5038495;28;20168;-83
2021/05/05 11:02:47;;;;;;;1999.90;999.90;;;11.40;99.90;;;;;;5139335;22;20215;-80
2021/05/05 11:05:25;;;;;;;1999.90;999.90;;;11.10;99.90;;;;;;5079185;28;20168;-80
2021/05/05 11:08:07;;;;;;;1999.90;999.90;;;11.00;99.90;;;;;;5080320;28;20179;-80
2021/05/05 11:10:33;;;;;;;1999.90;999.90;;;11.20;99.90;;;;;;5078720;28;20156;-80
2021/05/05 11:13:11;;;;;;;1999.90;999.90;;;11.40;99.90;;;;;;5078743;28;20508;-80
2021/05/05 11:15:44;;;;;;;1999.90;999.90;;;11.80;99.90;;;;;;5078698;28;20406;-80
2021/05/05 11:18:28;;;;;;;1999.90;999.90;;;12.30;99.90;;;;;;5080471;28;20532;-80
2021/05/05 11:20:59;;;;;;;1999.90;999.90;;;12.90;99.70;;;;;;5078961;28;20217;-80
2021/05/05 11:23:34;;;;;;;1999.90;999.90;;;13.30;91.40;;;;;;5078798;28;20666;-80
2021/05/05 11:26:31;;;;;;;1999.90;999.90;;;13.70;83.20;;;;;;5080259;28;20573;-81
2021/05/05 11:28:59;;;;;;;1999.90;999.90;;;14.00;86.00;;;;;;5078033;28;20199;-80
2021/05/05 11:31:44;;;;;;;1999.90;999.90;;;14.00;60.80;;;;;;5076565;28;20163;-79
2021/05/05 11:34:11;;;;;;;1999.90;999.90;;;13.80;63.60;;;;;;5078489;28;20171;-80
2021/05/05 11:36:37;;;;;;;1999.90;999.90;;;13.70;60.70;;;;;;5078281;28;20164;-78
2021/05/05 11:39:04;;;;;;;1999.90;999.90;;;13.80;55.20;;;;;;5078914;28;20164;-80
2021/05/05 11:41:32;;;;;;;1999.90;999.90;;;13.90;62.10;;;;;;5079221;28;20180;-78
2021/05/05 11:43:58;;;;;;;1999.90;999.90;;;13.70;44.80;;;;;;5078350;28;20172;-79
2021/05/05 11:46:25;;;;;;;1999.90;999.90;;;13.50;48.70;;;;;;5078962;28;20160;-79
2021/05/05 11:48:52;;;;;;;1999.90;999.90;;;13.30;46.10;;;;;;5078172;28;20247;-78
2021/05/05 11:51:21;;;;;;;1999.90;999.90;;;13.10;42.90;;;;;;5077097;28;20639;-78
2021/05/05 11:53:50;;;;;;;1999.90;999.90;;;13.00;44.70;;;;;;5077966;28;20172;-78
2021/05/05 11:56:24;;;;;;;1999.90;999.90;;;13.00;45.30;;;;;;5076491;28;20534;-79
2021/05/05 11:58:57;;;;;;;1999.90;999.90;;;12.80;33.90;;;;;;5076843;28;20542;-81
2021/05/05 12:01:35;;;;;;;1999.90;999.90;;;12.70;37.60;;;;;;5079039;28;20179;-80
2021/05/05 12:04:18;;;;;;;1999.90;999.90;;;12.80;41.90;;;;;;5079270;28;20180;-80
2021/05/05 12:07:02;;;;;;;1999.90;999.90;;;12.80;42.70;;;;;;5079851;28;20548;-80
2021/05/05 12:09:36;;;;;;;1999.90;999.90;;;12.80;38.30;;;;;;5078324;28;20159;-79
2021/05/05 12:12:16;;;;;;;1999.90;999.90;;;12.70;37.60;;;;;;5078083;28;20167;-79
2021/05/05 12:15:04;;;;;;;1999.90;999.90;;;12.90;36.80;;;;;;5077827;28;20164;-80
2021/05/05 12:20:03;;;;;;;1999.90;999.90;;;12.90;23.90;;;;;;5077015;28;20188;-79
2021/05/05 12:22:30;;;;;;;1999.90;999.90;;;12.70;26.50;;;;;;5077476;28;20183;-79
2021/05/05 12:25:11;;;;;;;1999.90;999.90;;;12.50;35.40;;;;;;5077248;28;20162;-80